Time;durP1;ratioP1;P1;durP2;ratioP2;P2;SDS_P1;SDS_P2;PMS_P1;PMS_P2;Temp;Humidity;BMP_temperature;BMP_pressure;BME280_temperature;BME280_humidity;BME280_pressure;Samples;Min_cycle;Max_cycle;Signal;HPM_P1;HPM_P2
2022/05/03 00:00:09;;;;;;;17.58;12.10;;;;;;;;;;5041735;28;20099;-61
2022/05/03 00:03:14;;;;;;;18.15;11.43;;;;;;;;;;5039267;28;20401;-61
2022/05/03 00:05:58;;;;;;;18.83;11.57;;;;;;;;;;5045151;28;20088;-61
2022/05/03 00:08:27;;;;;;;;;;;;;;;;;;5048712;28;20471;-62
2022/05/03 00:11:26;;;;;;;17.58;9.45;;;;;;;;;;5046201;28;20277;-61
2022/05/03 00:14:37;;;;;;;17.42;7.65;;;;;;;;;;5038207;28;20474;-62
2022/05/03 00:17:04;;;;;;;13.82;7.93;;;;;;;;;;5036592;28;20049;-65
2022/05/03 00:19:32;;;;;;;15.95;7.68;;;;;;;;;;5044515;28;20056;-61
2022/05/03 00:25:02;;;;;;;18.35;6.82;;;;;;;;;;5066705;28;20081;-62
2022/05/03 00:27:28;;;;;;;24.42;6.80;;;;;;;;;;5039787;28;20120;-63
2022/05/03 00:29:56;;;;;;;18.50;4.93;;;;;;;;;;5044114;28;20065;-62
2022/05/03 00:32:23;;;;;;;20.90;4.90;;;;;;;;;;5042638;28;20065;-64
2022/05/03 00:34:50;;;;;;;22.98;4.82;;;;;;;;;;5040773;28;20049;-63
2022/05/03 00:37:16;;;;;;;19.10;5.20;;;;;;;;;;5031173;28;20050;-63
2022/05/03 00:39:43;;;;;;;16.85;5.80;;;;;;;;;;5041415;28;20041;-64
2022/05/03 00:42:36;;;;;;;17.45;5.50;;;;;;;;;;5042839;28;20454;-61
2022/05/03 00:45:02;;;;;;;17.85;5.35;;;;;;;;;;5039203;28;20419;-62
2022/05/03 00:47:41;;;;;;;20.23;5.95;;;;;;;;;;5036631;28;20044;-62
2022/05/03 00:50:37;;;;;;;16.75;5.50;;;;;;;;;;5035051;28;20068;-63
2022/05/03 00:53:21;;;;;;;15.38;3.70;;;;;;;;;;5034757;28;20060;-63
2022/05/03 00:56:14;;;;;;;24.50;3.70;;;;;;;;;;5039133;28;20084;-62
2022/05/03 00:59:14;;;;;;;12.10;2.83;;;;;;;;;;5041077;28;20114;-62
2022/05/03 01:01:45;;;;;;;12.13;2.58;;;;;;;;;;5038791;28;20143;-67
2022/05/03 01:04:17;;;;;;;12.18;1.73;;;;;;;;;;5042134;28;20050;-63
2022/05/03 01:07:01;;;;;;;9.45;2.55;;;;;;;;;;5040586;28;20040;-63
2022/05/03 01:09:53;;;;;;;10.40;1.85;;;;;;;;;;5039066;28;20053;-63
2022/05/03 01:12:25;;;;;;;15.13;1.95;;;;;;;;;;5040567;28;20045;-64
2022/05/03 01:15:14;;;;;;;16.25;2.30;;;;;;;;;;5037099;28;20118;-65
2022/05/03 01:18:03;;;;;;;9.25;2.33;;;;;;;;;;5045801;28;20049;-64
2022/05/03 01:21:02;;;;;;;9.73;2.38;;;;;;;;;;5037247;28;20049;-66
2022/05/03 01:24:05;;;;;;;12.77;2.25;;;;;;;;;;5027305;28;20041;-62
2022/05/03 01:26:52;;;;;;;10.38;2.08;;;;;;;;;;5032474;28;20057;-61
2022/05/03 01:29:34;;;;;;;10.57;2.83;;;;;;;;;;5026815;28;20053;-61
2022/05/03 01:32:04;;;;;;;21.77;3.00;;;;;;;;;;5029205;28;20045;-64
2022/05/03 01:34:30;;;;;;;12.93;3.05;;;;;;;;;;5036461;28;20053;-62
2022/05/03 01:37:15;;;;;;;15.07;2.97;;;;;;;;;;5026041;28;20045;-61
2022/05/03 01:40:04;;;;;;;10.77;3.38;;;;;;;;;;5034206;28;20053;-62
2022/05/03 01:43:14;;;;;;;13.35;3.58;;;;;;;;;;5039608;28;20044;-62
2022/05/03 01:46:10;;;;;;;16.80;4.65;;;;;;;;;;4987797;28;20508;-63
2022/05/03 01:52:16;;;;;;;9.32;3.08;;;;;;;;;;4984390;28;20108;-62
2022/05/03 01:55:06;;;;;;;12.70;3.13;;;;;;;;;;4967935;28;20051;-63
2022/05/03 01:57:39;;;;;;;8.68;3.63;;;;;;;;;;4983086;28;20051;-64
2022/05/03 02:00:11;;;;;;;10.95;4.28;;;;;;;;;;4980104;28;20118;-62
2022/05/03 02:02:40;;;;;;;12.52;4.88;;;;;;;;;;4978060;28;20080;-63
2022/05/03 02:05:07;;;;;;;17.50;6.22;;;;;;;;;;4974891;28;20047;-63
2022/05/03 02:08:04;;;;;;;15.80;8.43;;;;;;;;;;4962091;28;20250;-62
2022/05/03 02:10:50;;;;;;;18.02;10.27;;;;;;;;;;4980897;28;20073;-63
2022/05/03 02:16:57;;;;;;;17.30;10.52;;;;;;;;;;5010835;28;20076;-62
2022/05/03 02:19:54;;;;;;;19.98;10.55;;;;;;;;;;5040906;28;20147;-63
2022/05/03 02:22:23;;;;;;;15.88;9.45;;;;;;;;;;5040592;28;20547;-63
2022/05/03 02:24:54;;;;;;;14.75;9.52;;;;;;;;;;5038078;28;20064;-62
2022/05/03 02:27:23;;;;;;;18.48;8.75;;;;;;;;;;5034866;28;20140;-63
2022/05/03 02:29:50;;;;;;;14.93;9.13;;;;;;;;;;5041553;28;20122;-62
2022/05/03 02:32:24;;;;;;;16.85;8.18;;;;;;;;;;5042460;28;20052;-63
2022/05/03 02:34:58;;;;;;;10.68;6.18;;;;;;;;;;5044210;28;20064;-61
2022/05/03 02:37:33;;;;;;;11.23;6.70;;;;;;;;;;5028999;28;20037;-62
2022/05/03 02:40:11;;;;;;;8.85;5.35;;;;;;;;;;5043616;28;20076;-62
2022/05/03 02:42:37;;;;;;;8.75;4.40;;;;;;;;;;5048634;28;20041;-62
2022/05/03 02:45:06;;;;;;;7.93;3.80;;;;;;;;;;5033637;28;20052;-61
2022/05/03 02:47:44;;;;;;;8.40;4.18;;;;;;;;;;5043374;28;20512;-62
2022/05/03 02:50:16;;;;;;;9.45;4.13;;;;;;;;;;5037694;28;20061;-62
2022/05/03 02:52:54;;;;;;;11.10;4.70;;;;;;;;;;5039193;28;20088;-63
2022/05/03 02:55:50;;;;;;;7.13;4.80;;;;;;;;;;5046572;28;20049;-62
2022/05/03 02:58:52;;;;;;;9.68;4.53;;;;;;;;;;5043335;28;20060;-65
2022/05/03 03:02:08;;;;;;;9.07;5.32;;;;;;;;;;5044373;28;20044;-63
2022/05/03 03:05:03;;;;;;;11.00;6.35;;;;;;;;;;5047211;28;20130;-60
2022/05/03 03:07:52;;;;;;;10.65;6.35;;;;;;;;;;5032729;28;20046;-62
2022/05/03 03:10:22;;;;;;;14.00;6.78;;;;;;;;;;5037731;28;20385;-62
2022/05/03 03:13:02;;;;;;;9.68;5.95;;;;;;;;;;5044999;28;20484;-63
2022/05/03 03:15:29;;;;;;;7.90;5.45;;;;;;;;;;5044388;28;20045;-64
2022/05/03 03:17:59;;;;;;;7.05;4.97;;;;;;;;;;5036663;28;20053;-61
2022/05/03 03:20:27;;;;;;;6.88;4.32;;;;;;;;;;5040595;28;20041;-63
2022/05/03 03:22:54;;;;;;;7.30;4.30;;;;;;;;;;5041469;28;20045;-64
2022/05/03 03:25:22;;;;;;;9.20;4.03;;;;;;;;;;5035637;28;20045;-62
2022/05/03 03:27:51;;;;;;;4.47;3.42;;;;;;;;;;5039562;28;20072;-63
2022/05/03 03:30:17;;;;;;;3.88;3.15;;;;;;;;;;5038804;28;20488;-64
2022/05/03 03:33:03;;;;;;;5.45;3.25;;;;;;;;;;5044698;28;20424;-65
2022/05/03 03:35:31;;;;;;;5.95;3.20;;;;;;;;;;5038551;28;20132;-62
2022/05/03 03:38:01;;;;;;;4.57;3.10;;;;;;;;;;5033109;28;20052;-62
2022/05/03 03:40:27;;;;;;;4.85;2.83;;;;;;;;;;5038398;28;20440;-62
2022/05/03 03:42:54;;;;;;;4.30;3.15;;;;;;;;;;5040380;28;20120;-61
2022/05/03 03:45:21;;;;;;;4.75;2.70;;;;;;;;;;5044007;28;20138;-63
2022/05/03 03:47:48;;;;;;;4.15;2.38;;;;;;;;;;5045936;28;20054;-62
2022/05/03 03:50:14;;;;;;;3.75;1.83;;;;;;;;;;5030367;28;20125;-63
2022/05/03 03:52:42;;;;;;;6.25;2.35;;;;;;;;;;5040249;28;20562;-62
2022/05/03 03:55:09;;;;;;;3.95;1.77;;;;;;;;;;5044450;28;20414;-64
2022/05/03 03:57:37;;;;;;;4.65;1.88;;;;;;;;;;5044748;28;20050;-63
2022/05/03 04:00:09;;;;;;;3.95;1.70;;;;;;;;;;5042228;28;20045;-64
2022/05/03 04:02:35;;;;;;;5.20;2.08;;;;;;;;;;5040475;28;20051;-63
2022/05/03 04:05:02;;;;;;;3.60;1.80;;;;;;;;;;5039150;28;20049;-65
2022/05/03 04:07:28;;;;;;;3.30;1.70;;;;;;;;;;5037824;28;20046;-63
2022/05/03 04:09:54;;;;;;;1.83;1.60;;;;;;;;;;5071835;28;20048;-62
2022/05/03 04:12:20;;;;;;;2.30;1.55;;;;;;;;;;5045647;28;20044;-64
2022/05/03 04:14:47;;;;;;;4.88;1.80;;;;;;;;;;5035895;28;20052;-62
2022/05/03 04:17:13;;;;;;;3.50;1.70;;;;;;;;;;5049253;28;20044;-62
2022/05/03 04:19:39;;;;;;;3.00;1.70;;;;;;;;;;5040997;28;20483;-64
2022/05/03 04:22:31;;;;;;;2.80;1.60;;;;;;;;;;5034777;28;20465;-63
2022/05/03 04:24:58;;;;;;;4.43;1.75;;;;;;;;;;5048879;28;20049;-63
2022/05/03 04:27:26;;;;;;;2.72;1.85;;;;;;;;;;5046159;28;20291;-64
2022/05/03 04:29:53;;;;;;;2.55;1.65;;;;;;;;;;5042992;28;20076;-64
2022/05/03 04:32:19;;;;;;;3.70;1.73;;;;;;;;;;5043743;28;20140;-65
2022/05/03 04:34:45;;;;;;;2.58;1.67;;;;;;;;;;5044082;28;20834;-63
2022/05/03 04:37:12;;;;;;;3.83;1.52;;;;;;;;;;5034691;28;20052;-63
2022/05/03 04:39:38;;;;;;;2.85;1.63;;;;;;;;;;5038386;28;20045;-62
2022/05/03 04:42:05;;;;;;;3.45;1.77;;;;;;;;;;5013883;28;20075;-63
2022/05/03 04:44:31;;;;;;;4.07;1.90;;;;;;;;;;5032518;28;20041;-64
2022/05/03 04:46:56;;;;;;;2.65;1.60;;;;;;;;;;5040872;28;20052;-63
2022/05/03 04:49:23;;;;;;;3.63;1.80;;;;;;;;;;5039859;28;20132;-64
2022/05/03 04:51:48;;;;;;;3.83;1.90;;;;;;;;;;5039694;28;20080;-64
2022/05/03 04:54:14;;;;;;;5.22;2.08;;;;;;;;;;5038403;28;20575;-63
2022/05/03 04:56:47;;;;;;;4.43;2.00;;;;;;;;;;5041945;28;20469;-63
2022/05/03 04:59:13;;;;;;;3.15;1.95;;;;;;;;;;5041094;28;20103;-63
2022/05/03 05:01:40;;;;;;;5.10;2.22;;;;;;;;;;5038833;28;20115;-63
2022/05/03 05:04:06;;;;;;;3.55;2.17;;;;;;;;;;5035551;28;20067;-65
2022/05/03 05:06:32;;;;;;;3.97;2.22;;;;;;;;;;5035359;28;20052;-64
2022/05/03 05:08:58;;;;;;;2.92;2.22;;;;;;;;;;5039669;28;20045;-63
2022/05/03 05:11:24;;;;;;;3.40;2.40;;;;;;;;;;5036388;28;20435;-65
2022/05/03 05:13:50;;;;;;;3.97;2.33;;;;;;;;;;5042286;28;20212;-64
2022/05/03 05:16:16;;;;;;;3.85;2.55;;;;;;;;;;5039124;28;20044;-65
2022/05/03 05:18:42;;;;;;;5.30;2.50;;;;;;;;;;5042061;28;20076;-65
2022/05/03 05:21:08;;;;;;;3.88;2.63;;;;;;;;;;5038160;28;20508;-62
2022/05/03 05:23:34;;;;;;;5.55;3.10;;;;;;;;;;5035434;28;20053;-65
2022/05/03 05:26:00;;;;;;;5.18;2.92;;;;;;;;;;5040845;28;20171;-65
2022/05/03 05:28:26;;;;;;;4.05;2.75;;;;;;;;;;5039087;28;20045;-65
2022/05/03 05:30:52;;;;;;;7.10;3.05;;;;;;;;;;5038899;28;20049;-63
2022/05/03 05:33:20;;;;;;;6.78;3.10;;;;;;;;;;5041515;28;20048;-63
2022/05/03 05:35:47;;;;;;;5.53;2.97;;;;;;;;;;5038906;28;20045;-63
2022/05/03 05:38:17;;;;;;;4.43;2.70;;;;;;;;;;5040888;28;20492;-63
2022/05/03 05:40:46;;;;;;;4.85;3.45;;;;;;;;;;5037269;28;20203;-63
2022/05/03 05:43:13;;;;;;;5.35;3.08;;;;;;;;;;5038179;28;20055;-63
2022/05/03 05:45:39;;;;;;;5.60;3.45;;;;;;;;;;5038361;28;20127;-61
2022/05/03 05:48:06;;;;;;;7.40;4.10;;;;;;;;;;5043360;28;20045;-59
2022/05/03 05:50:32;;;;;;;6.38;3.38;;;;;;;;;;5046049;28;20714;-61
2022/05/03 05:55:43;;;;;;;6.20;3.60;;;;;;;;;;5041236;28;20766;-62
2022/05/03 05:58:09;;;;;;;7.55;3.75;;;;;;;;;;5040763;28;20144;-60
2022/05/03 06:00:35;;;;;;;5.75;3.47;;;;;;;;;;5044021;28;20044;-63
2022/05/03 06:03:02;;;;;;;7.03;4.00;;;;;;;;;;5032251;28;20132;-63
2022/05/03 06:05:29;;;;;;;6.30;3.75;;;;;;;;;;5044875;28;20098;-62
2022/05/03 06:07:56;;;;;;;6.22;3.38;;;;;;;;;;5038917;28;20434;-65
2022/05/03 06:10:23;;;;;;;7.38;3.70;;;;;;;;;;5040632;28;20492;-62
2022/05/03 06:12:50;;;;;;;6.35;3.75;;;;;;;;;;5045836;28;20071;-63
2022/05/03 06:15:16;;;;;;;7.68;3.85;;;;;;;;;;5041948;28;20115;-63
2022/05/03 06:17:43;;;;;;;6.65;3.50;;;;;;;;;;5045859;28;20493;-62
2022/05/03 06:20:10;;;;;;;5.40;3.47;;;;;;;;;;5049813;28;20040;-62
2022/05/03 06:22:37;;;;;;;5.38;3.60;;;;;;;;;;5050000;28;20488;-63
2022/05/03 06:25:03;;;;;;;7.65;4.00;;;;;;;;;;5038434;28;20135;-61
2022/05/03 06:27:29;;;;;;;10.35;3.85;;;;;;;;;;5045885;28;20041;-62
2022/05/03 06:29:55;;;;;;;5.43;3.97;;;;;;;;;;5049540;28;20467;-63
2022/05/03 06:32:21;;;;;;;8.10;4.60;;;;;;;;;;5047434;28;20397;-63
2022/05/03 06:34:47;;;;;;;7.38;4.90;;;;;;;;;;5047526;28;20049;-61
2022/05/03 06:37:17;;;;;;;6.68;4.18;;;;;;;;;;5041281;28;20096;-61
2022/05/03 06:39:44;;;;;;;6.47;3.65;;;;;;;;;;5038952;28;20496;-67
2022/05/03 06:42:10;;;;;;;7.03;4.10;;;;;;;;;;5040226;28;20044;-63
2022/05/03 06:44:37;;;;;;;7.03;4.38;;;;;;;;;;5034794;28;20052;-66
2022/05/03 06:47:04;;;;;;;7.60;4.03;;;;;;;;;;5044472;28;20045;-62
2022/05/03 06:49:29;;;;;;;6.20;3.75;;;;;;;;;;5047385;28;20069;-65
2022/05/03 06:51:56;;;;;;;7.00;3.33;;;;;;;;;;5036445;28;20081;-63
2022/05/03 06:54:22;;;;;;;7.95;3.58;;;;;;;;;;5050522;28;20049;-64
2022/05/03 06:56:47;;;;;;;6.13;3.47;;;;;;;;;;5048357;28;20512;-63
2022/05/03 06:59:13;;;;;;;7.90;4.20;;;;;;;;;;5046838;28;20053;-62
2022/05/03 07:01:39;;;;;;;7.97;3.55;;;;;;;;;;5043184;28;20132;-65
2022/05/03 07:04:05;;;;;;;6.72;3.80;;;;;;;;;;5049674;28;20049;-62
2022/05/03 07:06:31;;;;;;;6.13;3.20;;;;;;;;;;5040073;28;20067;-62
2022/05/03 07:08:57;;;;;;;8.68;3.88;;;;;;;;;;5038445;28;20045;-62
2022/05/03 07:11:23;;;;;;;6.70;3.35;;;;;;;;;;5048206;28;20037;-65
2022/05/03 07:13:49;;;;;;;7.78;3.35;;;;;;;;;;5042974;28;20052;-64
2022/05/03 07:16:15;;;;;;;7.07;3.88;;;;;;;;;;5043403;28;20045;-65
2022/05/03 07:24:10;;;;;;;5.75;3.95;;;;;;;;;;5037935;28;19960;-63
2022/05/03 07:26:37;;;;;;;9.48;3.70;;;;;;;;;;5049994;28;20057;-64
2022/05/03 07:29:04;;;;;;;6.25;3.92;;;;;;;;;;5042083;28;20569;-62
2022/05/03 07:31:30;;;;;;;8.80;4.72;;;;;;;;;;5045623;28;20508;-64
2022/05/03 07:33:56;;;;;;;7.20;4.30;;;;;;;;;;5044203;28;21866;-63
2022/05/03 07:36:22;;;;;;;8.00;4.38;;;;;;;;;;5036485;28;20052;-64
2022/05/03 07:38:48;;;;;;;7.50;4.40;;;;;;;;;;5042261;28;20455;-63
2022/05/03 07:41:15;;;;;;;8.18;4.25;;;;;;;;;;5049742;28;20477;-62
2022/05/03 07:43:42;;;;;;;7.50;4.50;;;;;;;;;;5039584;28;20115;-61
2022/05/03 07:46:08;;;;;;;7.00;4.65;;;;;;;;;;5046022;28;20132;-62
2022/05/03 07:48:34;;;;;;;9.52;5.00;;;;;;;;;;5050763;28;20037;-62
2022/05/03 07:54:40;;;;;;;14.00;5.10;;;;;;;;;;5041042;28;20048;-62
2022/05/03 07:57:07;;;;;;;8.68;4.13;;;;;;;;;;5050856;28;20056;-63
2022/05/03 07:59:33;;;;;;;8.45;4.32;;;;;;;;;;5042115;28;20552;-62
2022/05/03 08:01:59;;;;;;;9.90;4.75;;;;;;;;;;5039817;28;20132;-63
2022/05/03 08:04:25;;;;;;;8.63;4.40;;;;;;;;;;5046335;28;20110;-62
2022/05/03 08:06:51;;;;;;;9.13;4.53;;;;;;;;;;5045073;28;20044;-67
2022/05/03 08:09:17;;;;;;;9.40;4.00;;;;;;;;;;5041354;28;20415;-64
2022/05/03 08:12:16;;;;;;;7.68;3.88;;;;;;;;;;5041255;28;20042;-62
2022/05/03 08:14:43;;;;;;;6.20;3.63;;;;;;;;;;5043374;28;20461;-63
2022/05/03 08:17:08;;;;;;;6.45;3.10;;;;;;;;;;5045268;28;20119;-64
2022/05/03 08:19:35;;;;;;;5.40;3.42;;;;;;;;;;5045853;28;20057;-63
2022/05/03 08:22:01;;;;;;;8.60;3.70;;;;;;;;;;5036858;28;20418;-62
2022/05/03 08:24:27;;;;;;;4.78;3.13;;;;;;;;;;5046392;28;20045;-62
2022/05/03 08:26:54;;;;;;;5.20;2.78;;;;;;;;;;5044666;28;20198;-63
2022/05/03 08:29:20;;;;;;;5.55;3.35;;;;;;;;;;5040765;28;20048;-62
2022/05/03 08:31:46;;;;;;;7.00;3.03;;;;;;;;;;5046362;28;20050;-62
2022/05/03 08:34:13;;;;;;;8.63;3.17;;;;;;;;;;5045884;28;20261;-62
2022/05/03 08:36:39;;;;;;;7.93;2.75;;;;;;;;;;5039890;28;20048;-63
2022/05/03 08:42:03;;;;;;;5.90;2.75;;;;;;;;;;5046494;28;20045;-64
2022/05/03 08:44:30;;;;;;;5.43;2.92;;;;;;;;;;5034884;28;20468;-62
2022/05/03 08:46:57;;;;;;;3.58;2.75;;;;;;;;;;5042017;28;20094;-63
2022/05/03 08:49:27;;;;;;;5.78;3.55;;;;;;;;;;5047941;28;20141;-63
2022/05/03 08:51:53;;;;;;;6.78;3.22;;;;;;;;;;5045948;28;20080;-66
2022/05/03 08:54:24;;;;;;;9.02;3.50;;;;;;;;;;5033266;28;20045;-64
2022/05/03 08:56:50;;;;;;;7.13;3.22;;;;;;;;;;5045080;28;20562;-61
2022/05/03 08:59:16;;;;;;;7.45;3.15;;;;;;;;;;5040056;28;20053;-64
2022/05/03 09:01:42;;;;;;;5.82;2.88;;;;;;;;;;5043785;28;20496;-63
2022/05/03 09:04:09;;;;;;;7.47;3.13;;;;;;;;;;5048110;28;20045;-65
2022/05/03 09:06:44;;;;;;;5.60;2.70;;;;;;;;;;5034865;28;20488;-64
2022/05/03 09:09:14;;;;;;;4.70;2.80;;;;;;;;;;5039005;28;20116;-64
2022/05/03 09:11:47;;;;;;;7.10;2.85;;;;;;;;;;5037831;28;20136;-63
2022/05/03 09:14:33;;;;;;;8.52;2.80;;;;;;;;;;5046086;28;20061;-63
2022/05/03 09:16:59;;;;;;;6.18;2.85;;;;;;;;;;5041091;28;20099;-63
2022/05/03 09:19:25;;;;;;;5.72;3.15;;;;;;;;;;5040697;28;20508;-63
2022/05/03 09:24:57;;;;;;;11.93;3.40;;;;;;;;;;5040516;28;20049;-64
2022/05/03 09:27:25;;;;;;;8.27;3.13;;;;;;;;;;5039908;28;20420;-62
2022/05/03 09:30:03;;;;;;;12.55;4.30;;;;;;;;;;5043717;28;21868;-65
2022/05/03 09:32:42;;;;;;;7.72;3.30;;;;;;;;;;5050251;28;20123;-62
2022/05/03 09:35:35;;;;;;;12.63;4.18;;;;;;;;;;5041152;28;20041;-64
2022/05/03 09:38:03;;;;;;;17.17;3.55;;;;;;;;;;5044706;28;20056;-64
2022/05/03 09:40:45;;;;;;;5.93;3.20;;;;;;;;;;5038400;28;20124;-65
2022/05/03 09:43:12;;;;;;;5.47;3.35;;;;;;;;;;5045676;28;20470;-63
2022/05/03 09:45:39;;;;;;;5.20;2.90;;;;;;;;;;5049378;28;20150;-63
2022/05/03 09:48:06;;;;;;;7.32;2.80;;;;;;;;;;5046845;28;20053;-63
2022/05/03 09:50:43;;;;;;;8.38;3.22;;;;;;;;;;5050915;28;20128;-63
2022/05/03 09:53:14;;;;;;;8.38;2.97;;;;;;;;;;5049049;28;20049;-62
2022/05/03 09:55:41;;;;;;;5.78;3.08;;;;;;;;;;5054727;28;20071;-61
2022/05/03 09:58:09;;;;;;;9.20;2.70;;;;;;;;;;5051874;28;20063;-63
2022/05/03 10:00:38;;;;;;;6.65;3.38;;;;;;;;;;5051964;28;20090;-65
2022/05/03 10:03:07;;;;;;;7.40;3.05;;;;;;;;;;5055174;28;20049;-61
2022/05/03 10:05:34;;;;;;;6.68;3.72;;;;;;;;;;5050860;28;20041;-63
2022/05/03 10:08:02;;;;;;;5.88;3.03;;;;;;;;;;5044725;28;20050;-65
2022/05/03 10:10:29;;;;;;;6.72;3.40;;;;;;;;;;5056009;28;20503;-66
2022/05/03 10:12:55;;;;;;;5.30;3.42;;;;;;;;;;5048663;28;20488;-66
2022/05/03 10:21:02;;;;;;;4.53;3.35;;;;;;;;;;5049822;28;20047;-64
2022/05/03 10:23:33;;;;;;;8.00;3.72;;;;;;;;;;5051796;28;20045;-65
2022/05/03 10:26:09;;;;;;;8.63;3.95;;;;;;;;;;5041698;28;20047;-68
2022/05/03 10:29:09;;;;;;;7.45;3.80;;;;;;;;;;5040449;28;20042;-63
2022/05/03 10:31:54;;;;;;;7.65;3.80;;;;;;;;;;5044883;28;20049;-66
2022/05/03 10:34:56;;;;;;;13.27;5.05;;;;;;;;;;5047871;28;20047;-64
2022/05/03 10:37:25;;;;;;;5.95;4.00;;;;;;;;;;5045176;28;20176;-65
2022/05/03 10:39:55;;;;;;;6.65;3.92;;;;;;;;;;5049492;28;20136;-62
2022/05/03 10:42:26;;;;;;;4.75;3.35;;;;;;;;;;5046292;28;20084;-63
2022/05/03 10:44:53;;;;;;;10.02;3.80;;;;;;;;;;5043416;28;20559;-63
2022/05/03 10:47:21;;;;;;;6.13;3.60;;;;;;;;;;5049416;28;20056;-63
2022/05/03 10:50:18;;;;;;;5.30;3.20;;;;;;;;;;5052653;28;20059;-62
2022/05/03 10:52:56;;;;;;;5.57;3.35;;;;;;;;;;5042908;28;20061;-63
2022/05/03 10:55:24;;;;;;;5.57;3.28;;;;;;;;;;5046248;28;20107;-66
2022/05/03 10:58:39;;;;;;;9.32;4.35;;;;;;;;;;5050327;28;20606;-63
2022/05/03 11:01:21;;;;;;;9.20;3.75;;;;;;;;;;5048512;28;20057;-63
2022/05/03 11:03:47;;;;;;;9.05;4.47;;;;;;;;;;5045204;28;20053;-65
2022/05/03 11:06:19;;;;;;;10.98;5.15;;;;;;;;;;5035776;28;20108;-65
2022/05/03 11:11:44;;;;;;;9.25;4.93;;;;;;;;;;5046616;28;20053;-64
2022/05/03 11:14:20;;;;;;;8.02;5.15;;;;;;;;;;5041702;28;20053;-65
2022/05/03 11:20:36;;;;;;;8.13;5.25;;;;;;;;;;5039633;28;20047;-71
2022/05/03 11:23:03;;;;;;;7.15;4.50;;;;;;;;;;5049887;28;20045;-66
2022/05/03 11:25:39;;;;;;;11.30;5.30;;;;;;;;;;5047751;28;20435;-66
2022/05/03 11:28:07;;;;;;;8.90;4.28;;;;;;;;;;5047523;28;20407;-65
2022/05/03 11:30:33;;;;;;;8.50;4.80;;;;;;;;;;5047777;28;20050;-66
2022/05/03 11:32:59;;;;;;;9.00;4.60;;;;;;;;;;5049354;28;20056;-64
2022/05/03 11:35:25;;;;;;;8.80;4.75;;;;;;;;;;5044808;28;20067;-64
2022/05/03 11:37:55;;;;;;;7.28;4.90;;;;;;;;;;5043224;28;20513;-63
2022/05/03 11:40:23;;;;;;;7.57;4.82;;;;;;;;;;5049771;28;20041;-67
2022/05/03 11:42:50;;;;;;;7.38;4.55;;;;;;;;;;5039032;28;20461;-64
2022/05/03 11:45:16;;;;;;;9.43;5.30;;;;;;;;;;5040215;28;20049;-63
2022/05/03 11:47:45;;;;;;;9.00;4.70;;;;;;;;;;5035665;28;20049;-67
2022/05/03 11:55:58;;;;;;;10.70;5.22;;;;;;;;;;5041126;28;20071;-65
2022/05/03 11:56:00;;;;;;;;;;;;;;;;;;5040876;28;20102;-65
2022/05/03 11:58:31;;;;;;;10.65;4.60;;;;;;;;;;5045959;28;20028;-65
2022/05/03 12:00:57;;;;;;;7.93;5.05;;;;;;;;;;5045197;28;20057;-66
2022/05/03 12:03:24;;;;;;;6.03;4.38;;;;;;;;;;5040290;28;20121;-65
2022/05/03 12:06:00;;;;;;;7.25;4.68;;;;;;;;;;5044745;28;20415;-67
2022/05/03 12:08:28;;;;;;;6.75;4.35;;;;;;;;;;5040184;28;20040;-65
2022/05/03 12:10:56;;;;;;;7.45;5.13;;;;;;;;;;5045250;28;20083;-66
2022/05/03 12:13:22;;;;;;;8.02;4.90;;;;;;;;;;5040462;28;20041;-63
2022/05/03 12:15:58;;;;;;;10.93;6.65;;;;;;;;;;5046557;28;20076;-62
2022/05/03 12:18:30;;;;;;;10.63;5.35;;;;;;;;;;5041695;28;20045;-63
2022/05/03 12:20:59;;;;;;;7.43;5.15;;;;;;;;;;5046780;28;20524;-64
2022/05/03 12:23:39;;;;;;;9.10;5.60;;;;;;;;;;5042450;28;20515;-64
2022/05/03 12:26:15;;;;;;;10.57;6.07;;;;;;;;;;5042158;28;20052;-63
2022/05/03 12:28:57;;;;;;;14.23;9.15;;;;;;;;;;5056478;28;20041;-66
2022/05/03 12:31:36;;;;;;;13.00;7.72;;;;;;;;;;5047510;28;20060;-65
2022/05/03 12:34:21;;;;;;;13.20;8.43;;;;;;;;;;5047029;28;20083;-64
2022/05/03 12:36:48;;;;;;;15.55;9.45;;;;;;;;;;5048299;28;20049;-63
2022/05/03 12:39:25;;;;;;;14.23;9.05;;;;;;;;;;5043526;28;20081;-65
2022/05/03 12:42:00;;;;;;;17.13;9.90;;;;;;;;;;5039701;28;20042;-63
2022/05/03 12:44:27;;;;;;;25.02;10.25;;;;;;;;;;5042375;28;20389;-62
2022/05/03 12:47:04;;;;;;;19.38;10.55;;;;;;;;;;5037673;28;20049;-65
2022/05/03 12:49:30;;;;;;;16.80;11.20;;;;;;;;;;5038557;28;20043;-64
2022/05/03 12:51:56;;;;;;;18.63;10.50;;;;;;;;;;5044795;28;20060;-63
2022/05/03 12:54:23;;;;;;;18.67;10.90;;;;;;;;;;5045252;28;20400;-66
2022/05/03 12:59:33;;;;;;;16.17;9.30;;;;;;;;;;5043621;28;20303;-65
2022/05/03 13:01:59;;;;;;;15.35;9.15;;;;;;;;;;5035692;28;20504;-64
2022/05/03 13:04:28;;;;;;;17.77;9.00;;;;;;;;;;5046505;28;20052;-65
2022/05/03 13:06:54;;;;;;;9.00;7.53;;;;;;;;;;5039781;28;20045;-66
2022/05/03 13:09:21;;;;;;;14.38;7.88;;;;;;;;;;5029588;28;20112;-62
2022/05/03 13:11:47;;;;;;;11.80;7.72;;;;;;;;;;5044913;28;20116;-64
2022/05/03 13:14:13;;;;;;;13.65;7.32;;;;;;;;;;5031408;28;20136;-64
2022/05/03 13:16:40;;;;;;;15.95;8.55;;;;;;;;;;5045265;28;20048;-64
2022/05/03 13:19:06;;;;;;;14.13;7.43;;;;;;;;;;5028214;28;20053;-63
2022/05/03 13:22:11;;;;;;;15.95;7.97;;;;;;;;;;5035221;28;20049;-65
2022/05/03 13:24:38;;;;;;;16.80;7.18;;;;;;;;;;5042040;28;20069;-61
2022/05/03 13:27:04;;;;;;;13.40;6.82;;;;;;;;;;5050830;28;20047;-63
2022/05/03 13:29:30;;;;;;;8.98;6.20;;;;;;;;;;5048165;28;20052;-65
2022/05/03 13:31:56;;;;;;;10.55;5.68;;;;;;;;;;5038527;28;20559;-62
2022/05/03 13:34:22;;;;;;;10.52;6.13;;;;;;;;;;5042855;28;20132;-65
2022/05/03 13:42:16;;;;;;;11.25;5.93;;;;;;;;;;5045988;28;20400;-63
2022/05/03 13:44:43;;;;;;;9.00;6.10;;;;;;;;;;5045841;28;20045;-63
2022/05/03 13:47:09;;;;;;;10.80;6.22;;;;;;;;;;5041019;28;20403;-65
2022/05/03 13:49:35;;;;;;;8.00;5.55;;;;;;;;;;5052176;28;20052;-64
2022/05/03 13:52:01;;;;;;;9.52;6.22;;;;;;;;;;5048640;28;20071;-62
2022/05/03 13:54:27;;;;;;;12.43;5.90;;;;;;;;;;5046596;28;20040;-64
2022/05/03 13:56:53;;;;;;;11.63;6.07;;;;;;;;;;5051601;28;20071;-65
2022/05/03 13:59:19;;;;;;;11.32;6.50;;;;;;;;;;5041315;28;20081;-63
2022/05/03 14:01:45;;;;;;;9.88;5.32;;;;;;;;;;5048135;28;20049;-63
2022/05/03 14:04:11;;;;;;;7.68;4.70;;;;;;;;;;5040308;28;20077;-71
2022/05/03 14:06:37;;;;;;;6.70;4.05;;;;;;;;;;5044058;28;20444;-65
2022/05/03 14:09:03;;;;;;;6.28;3.35;;;;;;;;;;5053505;28;20064;-66
2022/05/03 14:11:31;;;;;;;8.50;3.85;;;;;;;;;;5042492;28;20045;-64
2022/05/03 14:13:58;;;;;;;6.70;3.80;;;;;;;;;;5043978;28;20049;-65
2022/05/03 14:16:24;;;;;;;8.30;4.60;;;;;;;;;;5046982;28;20614;-62
2022/05/03 14:18:50;;;;;;;6.38;4.63;;;;;;;;;;5035536;28;20049;-64
2022/05/03 14:21:16;;;;;;;10.43;5.70;;;;;;;;;;5035611;28;20053;-66
2022/05/03 14:23:41;;;;;;;10.85;5.78;;;;;;;;;;5046070;28;20045;-64
2022/05/03 14:26:09;;;;;;;10.98;5.97;;;;;;;;;;5045204;28;20045;-63
2022/05/03 14:28:36;;;;;;;10.68;5.70;;;;;;;;;;5045725;28;20080;-65
2022/05/03 14:31:02;;;;;;;7.95;5.50;;;;;;;;;;5044425;28;20041;-62
2022/05/03 14:33:28;;;;;;;8.85;5.38;;;;;;;;;;5042172;28;20492;-63
2022/05/03 14:35:55;;;;;;;9.55;5.15;;;;;;;;;;5047723;28;20492;-62
2022/05/03 14:38:21;;;;;;;10.88;5.05;;;;;;;;;;5049406;28;20043;-62
2022/05/03 14:40:46;;;;;;;7.13;4.20;;;;;;;;;;5052348;28;20053;-64
2022/05/03 14:43:13;;;;;;;7.10;4.70;;;;;;;;;;5049551;28;20053;-63
2022/05/03 14:45:39;;;;;;;10.88;5.00;;;;;;;;;;5039855;28;20281;-63
2022/05/03 14:48:06;;;;;;;6.65;4.05;;;;;;;;;;5029497;28;20068;-65
2022/05/03 14:50:33;;;;;;;6.05;3.97;;;;;;;;;;5044099;28;20072;-63
2022/05/03 14:52:59;;;;;;;6.57;4.03;;;;;;;;;;5045782;28;20118;-63
2022/05/03 14:55:26;;;;;;;6.25;4.50;;;;;;;;;;5046558;28;20041;-64
2022/05/03 15:03:08;;;;;;;9.23;4.80;;;;;;;;;;5050432;28;20037;-64
2022/05/03 15:05:36;;;;;;;6.72;4.25;;;;;;;;;;5049688;28;20436;-65
2022/05/03 15:08:05;;;;;;;7.70;3.97;;;;;;;;;;5044262;28;20570;-62
2022/05/03 15:10:33;;;;;;;7.43;4.10;;;;;;;;;;5048392;28;20051;-62
2022/05/03 15:13:00;;;;;;;5.78;3.92;;;;;;;;;;5043074;28;20056;-62
2022/05/03 15:15:28;;;;;;;10.13;3.63;;;;;;;;;;5040453;28;20045;-62
2022/05/03 15:17:54;;;;;;;11.13;7.32;;;;;;;;;;5038578;28;20045;-64
2022/05/03 15:20:22;;;;;;;7.32;4.63;;;;;;;;;;5037165;28;20566;-63
2022/05/03 15:25:33;;;;;;;7.50;4.13;;;;;;;;;;5037309;28;20049;-64
2022/05/03 15:28:00;;;;;;;6.75;4.22;;;;;;;;;;5039641;28;20041;-61
2022/05/03 15:30:27;;;;;;;5.63;3.67;;;;;;;;;;5043927;28;20088;-64
2022/05/03 15:32:53;;;;;;;6.68;3.63;;;;;;;;;;5047069;28;20041;-64
2022/05/03 15:35:20;;;;;;;6.18;3.30;;;;;;;;;;5037908;28;20127;-64
2022/05/03 15:37:46;;;;;;;5.22;2.95;;;;;;;;;;5038421;28;21198;-63
2022/05/03 15:40:14;;;;;;;5.57;3.13;;;;;;;;;;5038375;28;20076;-64
2022/05/03 15:42:41;;;;;;;4.60;3.00;;;;;;;;;;5045604;28;20069;-63
2022/05/03 15:45:08;;;;;;;6.05;3.00;;;;;;;;;;5051033;28;20041;-68
2022/05/03 15:47:36;;;;;;;4.65;3.10;;;;;;;;;;5044949;28;20049;-64
2022/05/03 15:50:05;;;;;;;5.45;2.78;;;;;;;;;;5042164;28;20040;-68
2022/05/03 15:52:32;;;;;;;5.40;2.78;;;;;;;;;;5048318;28;20063;-63
2022/05/03 15:54:58;;;;;;;4.15;2.67;;;;;;;;;;5048684;28;20131;-64
2022/05/03 15:57:25;;;;;;;6.43;2.60;;;;;;;;;;5042883;28;20052;-62
2022/05/03 15:59:51;;;;;;;3.28;2.03;;;;;;;;;;5040937;28;20420;-63